sensor_id;sensor_type;location;lat;lon;timestamp;temperature;humidity
4215;DHT22;2121;48.062;7.850;2023-02-21T00:01:56;2.60;99.90
4215;DHT22;2121;48.062;7.850;2023-02-21T00:04:41;2.40;99.90
4215;DHT22;2121;48.062;7.850;2023-02-21T00:07:25;2.40;99.90
4215;DHT22;2121;48.062;7.850;2023-02-21T00:10:13;2.40;99.90
4215;DHT22;2121;48.062;7.850;2023-02-21T00:12:58;2.50;99.90
4215;DHT22;2121;48.062;7.850;2023-02-21T00:15:42;2.50;99.90
4215;DHT22;2121;48.062;7.850;2023-02-21T00:18:26;2.70;99.90
4215;DHT22;2121;48.062;7.850;2023-02-21T00:21:10;2.70;99.90
4215;DHT22;2121;48.062;7.850;2023-02-21T00:23:55;2.60;99.90
4215;DHT22;2121;48.062;7.850;2023-02-21T00:26:39;2.60;99.90
4215;DHT22;2121;48.062;7.850;2023-02-21T00:29:23;2.50;99.90
4215;DHT22;2121;48.062;7.850;2023-02-21T00:32:07;2.50;99.90
4215;DHT22;2121;48.062;7.850;2023-02-21T00:34:51;2.50;99.90
4215;DHT22;2121;48.062;7.850;2023-02-21T00:37:35;2.40;99.90
4215;DHT22;2121;48.062;7.850;2023-02-21T00:40:19;2.40;99.90
4215;DHT22;2121;48.062;7.850;2023-02-21T00:43:03;2.30;99.90
4215;DHT22;2121;48.062;7.850;2023-02-21T00:45:47;2.20;99.90
4215;DHT22;2121;48.062;7.850;2023-02-21T00:48:31;2.20;99.90
4215;DHT22;2121;48.062;7.850;2023-02-21T00:51:16;2.10;99.90
4215;DHT22;2121;48.062;7.850;2023-02-21T00:54:00;2.10;99.90
4215;DHT22;2121;48.062;7.850;2023-02-21T00:56:44;2.10;99.90
4215;DHT22;2121;48.062;7.850;2023-02-21T00:59:29;2.20;99.90
4215;DHT22;2121;48.062;7.850;2023-02-21T01:02:13;2.10;99.90
4215;DHT22;2121;48.062;7.850;2023-02-21T01:04:57;2.00;99.90
4215;DHT22;2121;48.062;7.850;2023-02-21T01:07:41;2.00;99.90
4215;DHT22;2121;48.062;7.850;2023-02-21T01:10:25;1.90;99.90
4215;DHT22;2121;48.062;7.850;2023-02-21T01:13:09;1.90;99.90
4215;DHT22;2121;48.062;7.850;2023-02-21T01:15:54;1.90;99.90
4215;DHT22;2121;48.062;7.850;2023-02-21T01:18:38;1.90;99.90
4215;DHT22;2121;48.062;7.850;2023-02-21T01:21:22;1.80;99.90
4215;DHT22;2121;48.062;7.850;2023-02-21T01:24:11;1.70;99.90
4215;DHT22;2121;48.062;7.850;2023-02-21T01:26:56;1.60;99.90
4215;DHT22;2121;48.062;7.850;2023-02-21T01:29:40;1.60;99.90
4215;DHT22;2121;48.062;7.850;2023-02-21T01:32:24;1.60;99.90
4215;DHT22;2121;48.062;7.850;2023-02-21T01:35:09;1.60;99.90
4215;DHT22;2121;48.062;7.850;2023-02-21T01:37:53;1.60;99.90
4215;DHT22;2121;48.062;7.850;2023-02-21T01:40:37;1.70;99.90
4215;DHT22;2121;48.062;7.850;2023-02-21T01:43:23;1.70;99.90
4215;DHT22;2121;48.062;7.850;2023-02-21T01:46:12;1.60;99.90
4215;DHT22;2121;48.062;7.850;2023-02-21T01:49:01;1.60;99.90
4215;DHT22;2121;48.062;7.850;2023-02-21T01:51:48;1.50;99.90
4215;DHT22;2121;48.062;7.850;2023-02-21T01:54:37;1.50;99.90
4215;DHT22;2121;48.062;7.850;2023-02-21T01:57:24;1.60;99.90
4215;DHT22;2121;48.062;7.850;2023-02-21T02:00:11;1.60;99.90
4215;DHT22;2121;48.062;7.850;2023-02-21T02:02:58;1.60;99.90
4215;DHT22;2121;48.062;7.850;2023-02-21T02:05:48;1.60;99.90
4215;DHT22;2121;48.062;7.850;2023-02-21T02:08:34;1.60;99.90
4215;DHT22;2121;48.062;7.850;2023-02-21T02:17:51;1.50;99.90
4215;DHT22;2121;48.062;7.850;2023-02-21T02:36:27;1.50;99.90
4215;DHT22;2121;48.062;7.850;2023-02-21T02:42:09;1.30;99.90
4215;DHT22;2121;48.062;7.850;2023-02-21T02:44:43;1.20;99.90
4215;DHT22;2121;48.062;7.850;2023-02-21T02:47:23;1.20;99.90
4215;DHT22;2121;48.062;7.850;2023-02-21T02:49:53;1.10;99.90
4215;DHT22;2121;48.062;7.850;2023-02-21T02:52:20;1.10;99.90
4215;DHT22;2121;48.062;7.850;2023-02-21T02:54:57;1.20;99.90
4215;DHT22;2121;48.062;7.850;2023-02-21T02:57:30;1.20;99.90
4215;DHT22;2121;48.062;7.850;2023-02-21T03:00:06;1.30;99.90
4215;DHT22;2121;48.062;7.850;2023-02-21T03:02:50;1.40;99.90
4215;DHT22;2121;48.062;7.850;2023-02-21T03:11:16;1.20;99.90
4215;DHT22;2121;48.062;7.850;2023-02-21T03:14:06;1.10;99.90
4215;DHT22;2121;48.062;7.850;2023-02-21T03:16:47;1.00;99.90
4215;DHT22;2121;48.062;7.850;2023-02-21T03:19:32;0.90;99.90
4215;DHT22;2121;48.062;7.850;2023-02-21T03:22:04;0.90;99.90
4215;DHT22;2121;48.062;7.850;2023-02-21T03:24:33;0.90;99.90
4215;DHT22;2121;48.062;7.850;2023-02-21T03:27:04;0.90;99.90
4215;DHT22;2121;48.062;7.850;2023-02-21T03:29:32;0.90;99.90
4215;DHT22;2121;48.062;7.850;2023-02-21T03:32:06;0.90;99.90
4215;DHT22;2121;48.062;7.850;2023-02-21T03:34:38;0.80;99.90
4215;DHT22;2121;48.062;7.850;2023-02-21T03:37:18;0.70;99.90
4215;DHT22;2121;48.062;7.850;2023-02-21T03:39:46;0.60;99.90
4215;DHT22;2121;48.062;7.850;2023-02-21T03:42:12;0.50;99.90
4215;DHT22;2121;48.062;7.850;2023-02-21T03:44:38;0.50;99.90
4215;DHT22;2121;48.062;7.850;2023-02-21T03:47:03;0.50;99.90
4215;DHT22;2121;48.062;7.850;2023-02-21T03:49:29;0.50;99.90
4215;DHT22;2121;48.062;7.850;2023-02-21T03:51:55;0.50;99.90
4215;DHT22;2121;48.062;7.850;2023-02-21T03:54:20;0.50;99.90
4215;DHT22;2121;48.062;7.850;2023-02-21T03:56:46;0.60;99.90
4215;DHT22;2121;48.062;7.850;2023-02-21T03:59:12;0.60;99.90
4215;DHT22;2121;48.062;7.850;2023-02-21T04:01:38;0.60;99.90
4215;DHT22;2121;48.062;7.850;2023-02-21T04:04:03;0.70;99.90
4215;DHT22;2121;48.062;7.850;2023-02-21T04:06:29;0.60;99.90
4215;DHT22;2121;48.062;7.850;2023-02-21T04:08:55;0.60;99.90
4215;DHT22;2121;48.062;7.850;2023-02-21T04:11:21;0.50;99.90
4215;DHT22;2121;48.062;7.850;2023-02-21T04:13:47;0.40;99.90
4215;DHT22;2121;48.062;7.850;2023-02-21T04:16:13;0.30;99.90
4215;DHT22;2121;48.062;7.850;2023-02-21T04:18:38;0.20;99.90
4215;DHT22;2121;48.062;7.850;2023-02-21T04:21:04;0.20;99.90
4215;DHT22;2121;48.062;7.850;2023-02-21T04:23:30;0.20;99.90
4215;DHT22;2121;48.062;7.850;2023-02-21T04:25:56;0.20;99.90
4215;DHT22;2121;48.062;7.850;2023-02-21T04:28:22;0.20;99.90
4215;DHT22;2121;48.062;7.850;2023-02-21T04:30:47;0.10;99.90
4215;DHT22;2121;48.062;7.850;2023-02-21T04:33:13;0.00;99.90
4215;DHT22;2121;48.062;7.850;2023-02-21T04:35:39;0.00;99.90
4215;DHT22;2121;48.062;7.850;2023-02-21T04:38:05;0.10;99.90
4215;DHT22;2121;48.062;7.850;2023-02-21T04:40:30;0.20;99.90
4215;DHT22;2121;48.062;7.850;2023-02-21T04:42:56;0.20;99.90
4215;DHT22;2121;48.062;7.850;2023-02-21T04:45:22;0.10;99.90
4215;DHT22;2121;48.062;7.850;2023-02-21T04:47:47;0.10;99.90
4215;DHT22;2121;48.062;7.850;2023-02-21T04:50:13;0.00;99.90
4215;DHT22;2121;48.062;7.850;2023-02-21T04:52:39;0.00;99.90
4215;DHT22;2121;48.062;7.850;2023-02-21T04:55:06;0.00;99.90
4215;DHT22;2121;48.062;7.850;2023-02-21T04:57:33;0.10;99.90
4215;DHT22;2121;48.062;7.850;2023-02-21T04:59:59;0.20;99.90
4215;DHT22;2121;48.062;7.850;2023-02-21T05:02:26;0.20;99.90
4215;DHT22;2121;48.062;7.850;2023-02-21T05:04:52;0.20;99.90
4215;DHT22;2121;48.062;7.850;2023-02-21T05:07:18;0.10;99.90
4215;DHT22;2121;48.062;7.850;2023-02-21T05:09:44;0.10;99.90
4215;DHT22;2121;48.062;7.850;2023-02-21T05:12:09;0.00;99.90
4215;DHT22;2121;48.062;7.850;2023-02-21T05:14:40;0.00;99.90
4215;DHT22;2121;48.062;7.850;2023-02-21T05:17:06;-0.10;99.90
4215;DHT22;2121;48.062;7.850;2023-02-21T05:19:32;-0.10;99.90
4215;DHT22;2121;48.062;7.850;2023-02-21T05:22:00;-0.20;99.90
4215;DHT22;2121;48.062;7.850;2023-02-21T05:24:28;-0.20;99.90
4215;DHT22;2121;48.062;7.850;2023-02-21T05:26:56;-0.20;99.90
4215;DHT22;2121;48.062;7.850;2023-02-21T05:29:22;-0.20;99.90
4215;DHT22;2121;48.062;7.850;2023-02-21T05:31:48;-0.20;99.90
4215;DHT22;2121;48.062;7.850;2023-02-21T05:34:14;-0.20;99.90
4215;DHT22;2121;48.062;7.850;2023-02-21T05:36:41;-0.30;99.90
4215;DHT22;2121;48.062;7.850;2023-02-21T05:39:07;-0.20;99.90
4215;DHT22;2121;48.062;7.850;2023-02-21T05:41:34;-0.20;99.90
4215;DHT22;2121;48.062;7.850;2023-02-21T05:44:01;-0.30;99.90
4215;DHT22;2121;48.062;7.850;2023-02-21T05:46:33;-0.40;99.90
4215;DHT22;2121;48.062;7.850;2023-02-21T05:49:01;-0.40;99.90
4215;DHT22;2121;48.062;7.850;2023-02-21T05:51:37;-0.40;99.90
4215;DHT22;2121;48.062;7.850;2023-02-21T05:54:06;-0.50;99.90
4215;DHT22;2121;48.062;7.850;2023-02-21T05:56:39;-0.40;99.90
4215;DHT22;2121;48.062;7.850;2023-02-21T05:59:07;-0.30;99.90
4215;DHT22;2121;48.062;7.850;2023-02-21T06:01:33;-0.40;99.90
4215;DHT22;2121;48.062;7.850;2023-02-21T06:03:59;-0.40;99.90
4215;DHT22;2121;48.062;7.850;2023-02-21T06:06:25;-0.40;99.90
4215;DHT22;2121;48.062;7.850;2023-02-21T06:08:51;-0.40;99.90
4215;DHT22;2121;48.062;7.850;2023-02-21T06:11:25;-0.40;99.90
4215;DHT22;2121;48.062;7.850;2023-02-21T06:13:54;-0.30;99.90
4215;DHT22;2121;48.062;7.850;2023-02-21T06:16:21;-0.30;99.90
4215;DHT22;2121;48.062;7.850;2023-02-21T06:18:51;-0.40;99.90
4215;DHT22;2121;48.062;7.850;2023-02-21T06:21:18;-0.40;99.90
4215;DHT22;2121;48.062;7.850;2023-02-21T06:23:44;-0.40;99.90
4215;DHT22;2121;48.062;7.850;2023-02-21T06:26:11;-0.50;99.90
4215;DHT22;2121;48.062;7.850;2023-02-21T06:28:37;-0.40;99.90
4215;DHT22;2121;48.062;7.850;2023-02-21T06:31:03;-0.40;99.90
4215;DHT22;2121;48.062;7.850;2023-02-21T06:33:30;-0.40;99.90
4215;DHT22;2121;48.062;7.850;2023-02-21T06:35:56;-0.40;99.90
4215;DHT22;2121;48.062;7.850;2023-02-21T06:38:22;-0.40;99.90
4215;DHT22;2121;48.062;7.850;2023-02-21T06:40:48;-0.40;99.90
4215;DHT22;2121;48.062;7.850;2023-02-21T06:43:14;-0.30;99.90
4215;DHT22;2121;48.062;7.850;2023-02-21T06:45:40;-0.20;99.90
4215;DHT22;2121;48.062;7.850;2023-02-21T06:48:05;-0.10;99.90
4215;DHT22;2121;48.062;7.850;2023-02-21T06:50:32;0.00;99.90
4215;DHT22;2121;48.062;7.850;2023-02-21T06:52:59;0.00;99.90
4215;DHT22;2121;48.062;7.850;2023-02-21T06:55:25;0.00;99.90
4215;DHT22;2121;48.062;7.850;2023-02-21T06:57:50;0.00;99.90
4215;DHT22;2121;48.062;7.850;2023-02-21T07:00:17;-0.10;99.90
4215;DHT22;2121;48.062;7.850;2023-02-21T07:02:43;-0.10;99.90
4215;DHT22;2121;48.062;7.850;2023-02-21T07:05:09;0.00;99.90
4215;DHT22;2121;48.062;7.850;2023-02-21T07:07:35;0.10;99.90
4215;DHT22;2121;48.062;7.850;2023-02-21T07:10:01;0.10;99.90
4215;DHT22;2121;48.062;7.850;2023-02-21T07:12:27;0.20;99.90
4215;DHT22;2121;48.062;7.850;2023-02-21T07:14:53;0.20;99.90
4215;DHT22;2121;48.062;7.850;2023-02-21T07:17:19;0.30;99.90
4215;DHT22;2121;48.062;7.850;2023-02-21T07:19:45;0.50;99.90
4215;DHT22;2121;48.062;7.850;2023-02-21T07:22:11;0.70;99.90
4215;DHT22;2121;48.062;7.850;2023-02-21T07:24:37;0.80;99.90
4215;DHT22;2121;48.062;7.850;2023-02-21T07:27:03;1.00;99.90
4215;DHT22;2121;48.062;7.850;2023-02-21T07:29:28;1.20;99.90
4215;DHT22;2121;48.062;7.850;2023-02-21T07:31:55;1.30;99.90
4215;DHT22;2121;48.062;7.850;2023-02-21T07:34:22;1.50;99.90
4215;DHT22;2121;48.062;7.850;2023-02-21T07:36:49;1.80;99.90
4215;DHT22;2121;48.062;7.850;2023-02-21T07:39:15;1.80;99.90
4215;DHT22;2121;48.062;7.850;2023-02-21T07:41:40;2.00;99.90
4215;DHT22;2121;48.062;7.850;2023-02-21T07:44:06;2.30;99.90
4215;DHT22;2121;48.062;7.850;2023-02-21T07:46:32;2.30;99.90
4215;DHT22;2121;48.062;7.850;2023-02-21T07:48:59;2.50;99.90
4215;DHT22;2121;48.062;7.850;2023-02-21T07:51:29;2.60;99.90
4215;DHT22;2121;48.062;7.850;2023-02-21T07:53:55;2.80;99.90
4215;DHT22;2121;48.062;7.850;2023-02-21T07:56:22;3.00;99.90
4215;DHT22;2121;48.062;7.850;2023-02-21T07:58:48;3.20;99.90
4215;DHT22;2121;48.062;7.850;2023-02-21T08:01:14;3.30;99.90
4215;DHT22;2121;48.062;7.850;2023-02-21T08:03:40;3.50;99.90
4215;DHT22;2121;48.062;7.850;2023-02-21T08:06:07;3.60;99.90
4215;DHT22;2121;48.062;7.850;2023-02-21T08:08:33;3.80;99.90
4215;DHT22;2121;48.062;7.850;2023-02-21T08:10:59;4.00;99.90
4215;DHT22;2121;48.062;7.850;2023-02-21T08:13:25;4.10;99.90
4215;DHT22;2121;48.062;7.850;2023-02-21T08:15:51;4.30;99.90
4215;DHT22;2121;48.062;7.850;2023-02-21T08:18:19;4.40;99.90
4215;DHT22;2121;48.062;7.850;2023-02-21T08:20:49;4.60;99.90
4215;DHT22;2121;48.062;7.850;2023-02-21T08:23:16;4.70;99.90
4215;DHT22;2121;48.062;7.850;2023-02-21T08:25:43;4.80;99.90
4215;DHT22;2121;48.062;7.850;2023-02-21T08:28:10;4.90;99.90
4215;DHT22;2121;48.062;7.850;2023-02-21T08:30:35;5.00;99.90
4215;DHT22;2121;48.062;7.850;2023-02-21T08:33:01;5.20;99.90
4215;DHT22;2121;48.062;7.850;2023-02-21T08:35:27;5.30;99.90
4215;DHT22;2121;48.062;7.850;2023-02-21T08:37:53;5.40;99.90
4215;DHT22;2121;48.062;7.850;2023-02-21T08:40:27;5.50;99.90
4215;DHT22;2121;48.062;7.850;2023-02-21T08:42:54;5.70;99.90
4215;DHT22;2121;48.062;7.850;2023-02-21T08:45:21;5.90;99.90
4215;DHT22;2121;48.062;7.850;2023-02-21T08:47:48;6.00;99.90
4215;DHT22;2121;48.062;7.850;2023-02-21T08:50:15;6.10;99.90
4215;DHT22;2121;48.062;7.850;2023-02-21T08:52:45;6.30;99.90
4215;DHT22;2121;48.062;7.850;2023-02-21T08:55:11;6.50;99.90
4215;DHT22;2121;48.062;7.850;2023-02-21T08:57:37;6.80;99.90
4215;DHT22;2121;48.062;7.850;2023-02-21T09:00:04;7.00;99.90
4215;DHT22;2121;48.062;7.850;2023-02-21T09:02:33;7.20;99.90
4215;DHT22;2121;48.062;7.850;2023-02-21T09:04:59;7.40;99.90
4215;DHT22;2121;48.062;7.850;2023-02-21T09:07:25;7.70;99.90
4215;DHT22;2121;48.062;7.850;2023-02-21T09:09:52;8.00;99.90
4215;DHT22;2121;48.062;7.850;2023-02-21T09:12:18;8.20;99.90
4215;DHT22;2121;48.062;7.850;2023-02-21T09:14:44;8.40;99.90
4215;DHT22;2121;48.062;7.850;2023-02-21T09:17:12;8.50;99.90
4215;DHT22;2121;48.062;7.850;2023-02-21T09:19:38;8.60;99.90
4215;DHT22;2121;48.062;7.850;2023-02-21T09:22:06;8.90;99.90
4215;DHT22;2121;48.062;7.850;2023-02-21T09:24:33;9.20;99.90
4215;DHT22;2121;48.062;7.850;2023-02-21T09:26:59;9.60;99.90
4215;DHT22;2121;48.062;7.850;2023-02-21T09:29:30;9.70;99.90
4215;DHT22;2121;48.062;7.850;2023-02-21T09:31:58;9.60;99.90
4215;DHT22;2121;48.062;7.850;2023-02-21T09:34:25;9.80;99.90
4215;DHT22;2121;48.062;7.850;2023-02-21T09:36:51;9.90;99.90
4215;DHT22;2121;48.062;7.850;2023-02-21T09:39:17;10.30;99.90
4215;DHT22;2121;48.062;7.850;2023-02-21T09:41:43;10.50;99.90
4215;DHT22;2121;48.062;7.850;2023-02-21T09:44:17;10.80;99.90
4215;DHT22;2121;48.062;7.850;2023-02-21T09:46:47;10.70;99.90
4215;DHT22;2121;48.062;7.850;2023-02-21T09:49:25;10.80;99.90
4215;DHT22;2121;48.062;7.850;2023-02-21T09:51:57;11.00;99.90
4215;DHT22;2121;48.062;7.850;2023-02-21T09:54:29;11.30;99.90
4215;DHT22;2121;48.062;7.850;2023-02-21T09:57:01;11.60;99.70
4215;DHT22;2121;48.062;7.850;2023-02-21T09:59:29;11.50;99.00
4215;DHT22;2121;48.062;7.850;2023-02-21T10:02:16;11.00;99.30
4215;DHT22;2121;48.062;7.850;2023-02-21T10:21:35;11.40;99.60
4215;DHT22;2121;48.062;7.850;2023-02-21T10:24:18;11.50;98.60
4215;DHT22;2121;48.062;7.850;2023-02-21T10:29:47;11.80;98.40
4215;DHT22;2121;48.062;7.850;2023-02-21T10:32:17;11.90;98.20
4215;DHT22;2121;48.062;7.850;2023-02-21T10:34:44;11.80;97.90
4215;DHT22;2121;48.062;7.850;2023-02-21T10:46:43;12.40;98.50
4215;DHT22;2121;48.062;7.850;2023-02-21T10:48:51;12.10;98.30
4215;DHT22;2121;48.062;7.850;2023-02-21T10:51:30;12.00;98.70
4215;DHT22;2121;48.062;7.850;2023-02-21T10:54:26;12.10;99.10
4215;DHT22;2121;48.062;7.850;2023-02-21T10:56:52;12.20;98.80
4215;DHT22;2121;48.062;7.850;2023-02-21T10:59:25;12.50;99.00
4215;DHT22;2121;48.062;7.850;2023-02-21T11:01:53;12.50;98.30
4215;DHT22;2121;48.062;7.850;2023-02-21T11:06:52;12.50;98.50
4215;DHT22;2121;48.062;7.850;2023-02-21T11:12:26;13.00;97.70
4215;DHT22;2121;48.062;7.850;2023-02-21T11:15:25;13.20;96.50
4215;DHT22;2121;48.062;7.850;2023-02-21T11:18:44;13.50;96.60
4215;DHT22;2121;48.062;7.850;2023-02-21T11:20:53;13.50;96.10
4215;DHT22;2121;48.062;7.850;2023-02-21T11:23:31;13.40;96.00
4215;DHT22;2121;48.062;7.850;2023-02-21T11:26:06;13.40;95.80
4215;DHT22;2121;48.062;7.850;2023-02-21T11:28:42;14.00;96.50
4215;DHT22;2121;48.062;7.850;2023-02-21T11:31:16;14.60;95.10
4215;DHT22;2121;48.062;7.850;2023-02-21T11:33:54;14.60;94.70
4215;DHT22;2121;48.062;7.850;2023-02-21T11:36:33;14.60;94.40
4215;DHT22;2121;48.062;7.850;2023-02-21T11:39:35;14.60;94.00
4215;DHT22;2121;48.062;7.850;2023-02-21T11:42:02;14.80;93.80
4215;DHT22;2121;48.062;7.850;2023-02-21T11:44:38;15.10;94.30
4215;DHT22;2121;48.062;7.850;2023-02-21T11:50:03;15.50;94.10
4215;DHT22;2121;48.062;7.850;2023-02-21T11:55:03;15.90;93.40
4215;DHT22;2121;48.062;7.850;2023-02-21T12:01:05;15.70;92.70
4215;DHT22;2121;48.062;7.850;2023-02-21T12:06:08;16.90;92.60
4215;DHT22;2121;48.062;7.850;2023-02-21T12:11:39;18.20;91.20
4215;DHT22;2121;48.062;7.850;2023-02-21T12:14:45;18.60;90.90
4215;DHT22;2121;48.062;7.850;2023-02-21T12:22:57;19.20;89.80
4215;DHT22;2121;48.062;7.850;2023-02-21T12:25:43;19.50;89.10
4215;DHT22;2121;48.062;7.850;2023-02-21T12:42:11;19.80;85.70
4215;DHT22;2121;48.062;7.850;2023-02-21T12:48:16;19.10;85.00
4215;DHT22;2121;48.062;7.850;2023-02-21T12:50:57;19.20;86.00
4215;DHT22;2121;48.062;7.850;2023-02-21T12:56:27;19.30;84.70
4215;DHT22;2121;48.062;7.850;2023-02-21T12:59:13;19.70;83.90
4215;DHT22;2121;48.062;7.850;2023-02-21T13:01:48;19.60;82.50
4215;DHT22;2121;48.062;7.850;2023-02-21T13:04:36;19.50;83.70
4215;DHT22;2121;48.062;7.850;2023-02-21T13:07:53;19.00;83.10
4215;DHT22;2121;48.062;7.850;2023-02-21T13:10:27;17.60;83.70
4215;DHT22;2121;48.062;7.850;2023-02-21T13:13:12;17.00;84.10
4215;DHT22;2121;48.062;7.850;2023-02-21T13:15:41;16.90;85.60
4215;DHT22;2121;48.062;7.850;2023-02-21T13:20:46;17.60;84.10
4215;DHT22;2121;48.062;7.850;2023-02-21T13:29:02;16.90;85.60
4215;DHT22;2121;48.062;7.850;2023-02-21T13:31:41;17.40;84.20
4215;DHT22;2121;48.062;7.850;2023-02-21T13:34:09;17.50;82.60
4215;DHT22;2121;48.062;7.850;2023-02-21T13:41:47;17.40;81.90
4215;DHT22;2121;48.062;7.850;2023-02-21T13:44:31;17.50;80.80
4215;DHT22;2121;48.062;7.850;2023-02-21T13:47:24;17.40;78.20
4215;DHT22;2121;48.062;7.850;2023-02-21T13:49:57;17.70;78.90
4215;DHT22;2121;48.062;7.850;2023-02-21T13:52:33;18.20;78.60
4215;DHT22;2121;48.062;7.850;2023-02-21T13:57:48;18.10;75.70
4215;DHT22;2121;48.062;7.850;2023-02-21T14:11:15;17.60;76.10
4215;DHT22;2121;48.062;7.850;2023-02-21T14:19:16;18.40;72.70
4215;DHT22;2121;48.062;7.850;2023-02-21T14:21:54;18.60;70.80
4215;DHT22;2121;48.062;7.850;2023-02-21T14:24:25;18.60;72.60
4215;DHT22;2121;48.062;7.850;2023-02-21T14:26:54;18.80;71.00
4215;DHT22;2121;48.062;7.850;2023-02-21T14:39:47;19.30;72.90
4215;DHT22;2121;48.062;7.850;2023-02-21T14:55:09;18.00;74.90
4215;DHT22;2121;48.062;7.850;2023-02-21T15:04:01;19.00;70.10
4215;DHT22;2121;48.062;7.850;2023-02-21T15:06:34;18.90;69.90
4215;DHT22;2121;48.062;7.850;2023-02-21T15:09:17;18.70;70.10
4215;DHT22;2121;48.062;7.850;2023-02-21T15:11:45;18.80;69.30
4215;DHT22;2121;48.062;7.850;2023-02-21T15:14:15;18.90;69.60
4215;DHT22;2121;48.062;7.850;2023-02-21T15:16:59;19.20;69.50
4215;DHT22;2121;48.062;7.850;2023-02-21T15:19:37;19.10;68.80
4215;DHT22;2121;48.062;7.850;2023-02-21T15:24:55;18.80;69.80
4215;DHT22;2121;48.062;7.850;2023-02-21T15:27:51;18.70;69.80
4215;DHT22;2121;48.062;7.850;2023-02-21T15:30:29;18.80;68.90
4215;DHT22;2121;48.062;7.850;2023-02-21T15:33:04;18.70;69.50
4215;DHT22;2121;48.062;7.850;2023-02-21T15:35:50;18.70;69.00
4215;DHT22;2121;48.062;7.850;2023-02-21T15:41:05;18.70;70.30
4215;DHT22;2121;48.062;7.850;2023-02-21T15:43:42;18.80;69.70
4215;DHT22;2121;48.062;7.850;2023-02-21T15:46:19;19.30;68.90
4215;DHT22;2121;48.062;7.850;2023-02-21T15:48:51;20.00;68.40
4215;DHT22;2121;48.062;7.850;2023-02-21T15:51:19;20.30;67.50
4215;DHT22;2121;48.062;7.850;2023-02-21T15:54:09;20.50;67.60
4215;DHT22;2121;48.062;7.850;2023-02-21T15:59:35;21.50;71.20
4215;DHT22;2121;48.062;7.850;2023-02-21T16:04:39;23.60;68.50
4215;DHT22;2121;48.062;7.850;2023-02-21T16:07:34;24.80;67.80
4215;DHT22;2121;48.062;7.850;2023-02-21T16:10:07;27.20;64.70
4215;DHT22;2121;48.062;7.850;2023-02-21T16:12:38;29.00;64.20
4215;DHT22;2121;48.062;7.850;2023-02-21T16:17:43;31.50;58.50
4215;DHT22;2121;48.062;7.850;2023-02-21T16:20:14;32.10;56.60
4215;DHT22;2121;48.062;7.850;2023-02-21T16:22:45;32.10;56.30
4215;DHT22;2121;48.062;7.850;2023-02-21T16:25:23;31.50;55.60
4215;DHT22;2121;48.062;7.850;2023-02-21T16:27:57;30.40;56.00
4215;DHT22;2121;48.062;7.850;2023-02-21T16:30:28;29.30;56.80
4215;DHT22;2121;48.062;7.850;2023-02-21T16:33:01;27.90;57.70
4215;DHT22;2121;48.062;7.850;2023-02-21T16:35:29;26.40;59.40
4215;DHT22;2121;48.062;7.850;2023-02-21T16:37:57;25.20;61.10
4215;DHT22;2121;48.062;7.850;2023-02-21T16:40:29;23.50;62.10
4215;DHT22;2121;48.062;7.850;2023-02-21T16:42:58;21.80;63.70
4215;DHT22;2121;48.062;7.850;2023-02-21T16:45:26;20.40;65.80
4215;DHT22;2121;48.062;7.850;2023-02-21T16:48:05;19.00;67.80
4215;DHT22;2121;48.062;7.850;2023-02-21T16:50:35;17.90;69.50
4215;DHT22;2121;48.062;7.850;2023-02-21T16:53:03;17.10;71.30
4215;DHT22;2121;48.062;7.850;2023-02-21T16:55:29;16.40;72.10
4215;DHT22;2121;48.062;7.850;2023-02-21T16:58:01;15.70;73.40
4215;DHT22;2121;48.062;7.850;2023-02-21T17:00:30;15.10;74.80
4215;DHT22;2121;48.062;7.850;2023-02-21T17:02:56;14.60;75.60
4215;DHT22;2121;48.062;7.850;2023-02-21T17:05:22;14.20;76.40
4215;DHT22;2121;48.062;7.850;2023-02-21T17:07:50;13.90;77.60
4215;DHT22;2121;48.062;7.850;2023-02-21T17:10:18;13.40;78.00
4215;DHT22;2121;48.062;7.850;2023-02-21T17:12:44;12.90;79.20
4215;DHT22;2121;48.062;7.850;2023-02-21T17:15:10;12.50;81.00
4215;DHT22;2121;48.062;7.850;2023-02-21T17:17:37;12.20;82.10
4215;DHT22;2121;48.062;7.850;2023-02-21T17:20:03;12.00;82.30
4215;DHT22;2121;48.062;7.850;2023-02-21T17:22:30;11.70;82.90
4215;DHT22;2121;48.062;7.850;2023-02-21T17:24:56;11.50;83.50
4215;DHT22;2121;48.062;7.850;2023-02-21T17:27:22;11.30;84.40
4215;DHT22;2121;48.062;7.850;2023-02-21T17:29:48;11.00;85.10
4215;DHT22;2121;48.062;7.850;2023-02-21T17:32:14;10.80;85.70
4215;DHT22;2121;48.062;7.850;2023-02-21T17:34:41;10.70;85.60
4215;DHT22;2121;48.062;7.850;2023-02-21T17:37:07;10.60;85.40
4215;DHT22;2121;48.062;7.850;2023-02-21T17:39:34;10.40;85.50
4215;DHT22;2121;48.062;7.850;2023-02-21T17:42:00;10.20;86.20
4215;DHT22;2121;48.062;7.850;2023-02-21T17:44:26;10.20;85.70
4215;DHT22;2121;48.062;7.850;2023-02-21T17:46:54;10.10;85.70
4215;DHT22;2121;48.062;7.850;2023-02-21T17:49:25;9.90;86.90
4215;DHT22;2121;48.062;7.850;2023-02-21T17:51:53;9.80;87.50
4215;DHT22;2121;48.062;7.850;2023-02-21T17:54:21;9.60;88.10
4215;DHT22;2121;48.062;7.850;2023-02-21T17:56:48;9.50;88.60
4215;DHT22;2121;48.062;7.850;2023-02-21T17:59:15;9.40;88.60
4215;DHT22;2121;48.062;7.850;2023-02-21T18:01:42;9.30;88.90
4215;DHT22;2121;48.062;7.850;2023-02-21T18:04:08;9.10;89.20
4215;DHT22;2121;48.062;7.850;2023-02-21T18:06:35;8.90;89.50
4215;DHT22;2121;48.062;7.850;2023-02-21T18:09:02;8.80;90.10
4215;DHT22;2121;48.062;7.850;2023-02-21T18:11:30;8.60;90.30
4215;DHT22;2121;48.062;7.850;2023-02-21T18:13:56;8.50;90.80
4215;DHT22;2121;48.062;7.850;2023-02-21T18:16:22;8.40;91.50
4215;DHT22;2121;48.062;7.850;2023-02-21T18:18:48;8.20;91.90
4215;DHT22;2121;48.062;7.850;2023-02-21T18:21:15;8.10;92.20
4215;DHT22;2121;48.062;7.850;2023-02-21T18:23:45;7.90;92.70
4215;DHT22;2121;48.062;7.850;2023-02-21T18:26:11;7.80;93.10
4215;DHT22;2121;48.062;7.850;2023-02-21T18:28:38;7.70;93.30
4215;DHT22;2121;48.062;7.850;2023-02-21T18:31:04;7.70;93.20
4215;DHT22;2121;48.062;7.850;2023-02-21T18:33:30;7.80;93.20
4215;DHT22;2121;48.062;7.850;2023-02-21T18:35:57;7.90;93.30
4215;DHT22;2121;48.062;7.850;2023-02-21T18:38:25;8.10;93.40
4215;DHT22;2121;48.062;7.850;2023-02-21T18:40:51;8.20;93.40
4215;DHT22;2121;48.062;7.850;2023-02-21T18:43:25;8.30;93.50
4215;DHT22;2121;48.062;7.850;2023-02-21T18:45:54;8.40;93.50
4215;DHT22;2121;48.062;7.850;2023-02-21T18:48:22;8.50;93.50
4215;DHT22;2121;48.062;7.850;2023-02-21T18:50:49;8.50;93.50
4215;DHT22;2121;48.062;7.850;2023-02-21T18:53:15;8.50;93.70
4215;DHT22;2121;48.062;7.850;2023-02-21T18:55:42;8.50;93.90
4215;DHT22;2121;48.062;7.850;2023-02-21T18:58:08;8.50;94.10
4215;DHT22;2121;48.062;7.850;2023-02-21T19:00:34;8.40;94.30
4215;DHT22;2121;48.062;7.850;2023-02-21T19:03:02;8.30;94.40
4215;DHT22;2121;48.062;7.850;2023-02-21T19:05:30;8.30;94.60
4215;DHT22;2121;48.062;7.850;2023-02-21T19:07:56;8.20;94.80
4215;DHT22;2121;48.062;7.850;2023-02-21T19:10:24;8.40;95.00
4215;DHT22;2121;48.062;7.850;2023-02-21T19:12:51;8.30;95.00
4215;DHT22;2121;48.062;7.850;2023-02-21T19:15:17;8.30;95.20
4215;DHT22;2121;48.062;7.850;2023-02-21T19:17:44;8.30;95.20
4215;DHT22;2121;48.062;7.850;2023-02-21T19:20:11;8.40;94.90
4215;DHT22;2121;48.062;7.850;2023-02-21T19:22:37;8.40;94.90
4215;DHT22;2121;48.062;7.850;2023-02-21T19:25:03;8.40;94.80
4215;DHT22;2121;48.062;7.850;2023-02-21T19:27:29;8.40;94.70
4215;DHT22;2121;48.062;7.850;2023-02-21T19:29:55;8.30;94.70
4215;DHT22;2121;48.062;7.850;2023-02-21T19:32:22;8.30;94.80
4215;DHT22;2121;48.062;7.850;2023-02-21T19:34:48;8.10;95.00
4215;DHT22;2121;48.062;7.850;2023-02-21T19:37:14;8.00;95.50
4215;DHT22;2121;48.062;7.850;2023-02-21T19:39:40;7.80;95.80
4215;DHT22;2121;48.062;7.850;2023-02-21T19:42:06;7.70;96.40